Time;durP1;ratioP1;P1;durP2;ratioP2;P2;SDS_P1;SDS_P2;PMS_P1;PMS_P2;Temp;Humidity;BMP_temperature;BMP_pressure;BME280_temperature;BME280_humidity;BME280_pressure;Samples;Min_cycle;Max_cycle;Signal;HPM_P1;HPM_P2
2021/11/21 00:01:17;;;;;;;17.27;11.00;;;8.00;75.30;;;7.16;60.56;94832.44;4943571;28;20215;-83
2021/11/21 00:03:45;;;;;;;18.55;10.88;;;7.90;75.10;;;7.16;60.44;94827.22;4943965;28;20231;-83
2021/11/21 00:06:14;;;;;;;18.65;12.27;;;7.90;75.10;;;7.16;60.57;94821.19;4944336;28;20250;-83
2021/11/21 00:08:42;;;;;;;17.55;11.38;;;7.90;75.10;;;7.14;60.40;94816.16;4942952;28;20329;-83
2021/11/21 00:11:09;;;;;;;16.15;11.50;;;7.90;75.10;;;7.09;60.54;94799.41;4943435;28;20223;-84
2021/11/21 00:13:36;;;;;;;17.25;10.82;;;7.90;75.10;;;7.14;60.42;94802.28;4943725;28;20218;-83
2021/11/21 00:16:06;;;;;;;15.65;10.63;;;7.90;75.10;;;7.12;60.74;94796.47;4943280;28;20238;-83
2021/11/21 00:18:33;;;;;;;17.13;11.18;;;7.80;75.10;;;7.15;60.57;94785.66;4943975;28;20309;-84
2021/11/21 00:21:01;;;;;;;17.05;11.00;;;7.90;75.20;;;7.15;60.67;94791.72;4943290;28;20638;-84
2021/11/21 00:23:29;;;;;;;17.95;11.15;;;7.90;75.20;;;7.13;60.63;94785.84;4943298;28;20225;-84
2021/11/21 00:25:56;;;;;;;15.75;10.60;;;7.80;75.10;;;7.13;61.03;94788.47;4942546;28;20657;-83
2021/11/21 00:28:25;;;;;;;14.48;10.50;;;7.80;75.10;;;7.11;60.74;94773.97;4959213;28;20713;-83
2021/11/21 00:30:54;;;;;;;18.42;11.63;;;7.90;75.20;;;7.09;60.61;94776.72;4927829;28;20313;-83
2021/11/21 00:33:21;;;;;;;16.55;11.05;;;7.80;75.10;;;7.03;60.37;94767.00;4943225;28;20203;-82
2021/11/21 00:35:48;;;;;;;15.82;10.48;;;7.80;75.00;;;6.99;60.45;94758.69;4959390;28;20187;-83
2021/11/21 00:38:15;;;;;;;16.75;10.73;;;7.80;75.00;;;7.04;60.44;94764.22;4943044;28;20201;-82
2021/11/21 00:40:43;;;;;;;18.08;11.13;;;7.80;75.10;;;7.02;60.76;94757.56;4943128;28;20230;-81
2021/11/21 00:43:10;;;;;;;16.52;11.20;;;7.80;75.10;;;7.01;60.49;94759.34;4942821;28;20209;-82
2021/11/21 00:45:38;;;;;;;17.25;11.63;;;7.80;75.10;;;7.00;60.42;94757.72;4938399;29;20207;-82
2021/11/21 00:48:05;;;;;;;16.58;10.55;;;7.80;75.10;;;7.00;60.80;94756.94;4953991;28;20210;-83
2021/11/21 00:50:33;;;;;;;17.38;11.57;;;7.80;75.20;;;6.97;60.43;94741.59;4923925;29;20577;-82
2021/11/21 00:53:03;;;;;;;16.92;11.55;;;7.80;75.20;;;6.99;60.53;94744.88;4942580;28;20191;-83
2021/11/21 00:55:39;;;;;;;19.13;11.18;;;7.70;75.10;;;6.93;60.31;94732.53;4942539;28;20277;-83
2021/11/21 00:58:10;;;;;;;16.30;10.68;;;7.70;75.20;;;6.95;60.67;94741.00;4942468;28;20230;-83
2021/11/21 01:00:42;;;;;;;18.65;12.07;;;7.70;75.10;;;6.93;60.52;94737.75;4940706;28;20282;-83
2021/11/21 01:03:13;;;;;;;18.13;11.10;;;7.70;76.00;;;6.90;60.89;94741.50;4942737;28;20202;-83
2021/11/21 01:05:43;;;;;;;20.15;11.88;;;7.70;76.00;;;6.88;60.68;94746.91;4942591;28;20281;-82
2021/11/21 01:08:10;;;;;;;18.45;12.00;;;7.70;75.20;;;6.85;60.67;94733.41;4942582;28;20242;-84
2021/11/21 01:10:40;;;;;;;21.55;12.55;;;7.70;75.30;;;6.82;60.54;94737.16;4938250;29;20222;-83
2021/11/21 01:13:07;;;;;;;20.40;12.32;;;7.70;75.30;;;6.79;60.88;94726.28;4954990;28;20263;-83
2021/11/21 01:15:35;;;;;;;22.83;13.85;;;7.60;75.20;;;6.72;61.01;94729.53;4955099;28;20207;-82
2021/11/21 01:18:03;;;;;;;21.15;12.80;;;7.60;75.10;;;6.67;60.99;94729.25;4955022;28;20214;-83
2021/11/21 01:20:34;;;;;;;19.13;12.32;;;7.60;75.10;;;6.60;60.95;94730.91;4956182;28;20222;-84
2021/11/21 01:23:04;;;;;;;17.80;11.43;;;7.50;75.10;;;6.55;60.87;94726.25;4942130;28;20673;-83
2021/11/21 01:25:31;;;;;;;17.08;11.35;;;7.40;75.00;;;6.49;60.62;94723.50;4958180;28;20211;-83
2021/11/21 01:27:59;;;;;;;17.08;10.80;;;7.40;75.00;;;6.38;60.76;94717.69;4942160;28;20210;-83
2021/11/21 01:30:29;;;;;;;16.10;10.57;;;7.40;75.00;;;6.32;61.16;94712.34;4940888;28;20227;-81
2021/11/21 01:32:59;;;;;;;15.57;10.18;;;7.30;75.10;;;6.29;60.94;94720.50;4919394;29;20210;-82
2021/11/21 01:35:28;;;;;;;16.13;9.95;;;7.20;75.10;;;6.29;60.94;94720.50;4922986;29;20781;-82
2021/11/21 01:37:55;;;;;;;15.80;10.13;;;7.20;75.10;;;6.26;60.88;94711.22;4957775;28;20261;-83
2021/11/21 01:40:23;;;;;;;15.13;9.55;;;7.20;75.20;;;6.22;60.81;94702.94;4941866;28;20768;-82
2021/11/21 01:42:53;;;;;;;16.13;10.38;;;7.20;75.30;;;6.23;61.22;94709.78;4941791;28;20209;-83
2021/11/21 01:45:21;;;;;;;15.25;9.75;;;7.10;75.30;;;6.20;61.18;94694.50;4957445;28;20727;-81
2021/11/21 01:47:49;;;;;;;16.08;10.48;;;7.10;75.30;;;6.19;60.99;94694.66;4957609;28;20209;-82
2021/11/21 01:50:34;;;;;;;17.73;10.88;;;7.10;75.40;;;6.19;61.14;94687.66;4941267;28;20677;-82
2021/11/21 01:53:02;;;;;;;17.30;11.00;;;7.00;75.50;;;6.17;60.88;94683.63;4941719;28;20206;-83
2021/11/21 01:55:30;;;;;;;16.60;10.68;;;7.00;75.40;;;6.16;61.13;94681.97;4941529;28;20229;-83
2021/11/21 01:57:58;;;;;;;17.85;11.77;;;7.00;75.50;;;6.18;61.19;94683.44;4922339;29;20211;-82
2021/11/21 02:00:31;;;;;;;18.40;11.18;;;7.00;75.50;;;6.19;61.24;94684.22;4922179;29;20242;-82
2021/11/21 02:02:58;;;;;;;17.15;11.18;;;7.00;75.60;;;6.20;61.03;94668.47;4938407;29;20650;-83
2021/11/21 02:05:25;;;;;;;19.05;11.45;;;6.90;75.60;;;6.19;61.14;94661.63;4938035;29;20227;-83
2021/11/21 02:07:53;;;;;;;19.15;11.52;;;7.00;75.60;;;6.19;61.16;94650.38;4947980;28;20203;-83
2021/11/21 02:10:23;;;;;;;18.67;12.00;;;6.90;75.60;;;6.18;61.40;94651.38;4924742;28;20317;-82
2021/11/21 02:12:51;;;;;;;18.35;11.48;;;7.00;75.80;;;6.16;61.33;94629.91;4941424;28;20733;-83
2021/11/21 02:15:22;;;;;;;18.17;11.07;;;7.00;75.80;;;6.23;61.07;94636.84;4940946;28;20277;-83
2021/11/21 02:17:51;;;;;;;19.95;11.73;;;7.00;75.80;;;6.24;61.32;94625.44;4938319;29;20203;-83
2021/11/21 02:20:38;;;;;;;20.48;11.45;;;7.00;75.80;;;6.25;61.33;94628.88;4921946;29;20219;-81
2021/11/21 02:23:07;;;;;;;20.08;11.75;;;7.10;76.20;;;6.25;61.37;94621.06;4934085;29;20211;-82
2021/11/21 02:25:37;;;;;;;17.42;11.38;;;7.00;75.80;;;6.25;61.29;94618.47;4937778;29;20275;-83
2021/11/21 02:28:06;;;;;;;17.10;11.50;;;7.00;75.80;;;6.25;61.20;94616.66;4939425;28;20291;-82
2021/11/21 02:30:36;;;;;;;18.52;11.45;;;7.00;75.90;;;6.27;61.30;94611.28;4939965;28;20218;-81
2021/11/21 02:33:10;;;;;;;19.50;11.95;;;7.00;75.90;;;6.28;61.30;94610.28;4956838;28;20191;-81
2021/11/21 02:35:42;;;;;;;16.40;10.80;;;7.00;76.10;;;6.29;61.24;94601.50;4939773;28;20191;-82
2021/11/21 02:38:13;;;;;;;18.98;11.85;;;7.00;75.90;;;6.29;61.13;94590.28;4943536;28;20604;-82
2021/11/21 02:40:40;;;;;;;18.40;11.55;;;7.00;75.90;;;6.24;61.40;94596.00;4937324;28;20229;-82
2021/11/21 02:43:08;;;;;;;18.00;11.55;;;7.00;75.80;;;6.28;61.34;94596.47;4935294;28;20199;-82
2021/11/21 02:45:35;;;;;;;17.52;11.13;;;7.10;76.00;;;6.27;61.36;94593.03;4940006;28;20211;-81
2021/11/21 02:48:03;;;;;;;19.23;12.43;;;7.10;75.90;;;6.28;61.23;94593.88;4936714;28;20201;-82
2021/11/21 02:50:31;;;;;;;19.30;12.55;;;7.00;75.90;;;6.27;61.54;94585.22;4945521;28;20214;-84
2021/11/21 02:52:59;;;;;;;20.65;11.57;;;7.00;75.90;;;6.25;61.45;94580.19;4929647;28;20191;-82
2021/11/21 02:55:31;;;;;;;19.77;11.95;;;7.00;75.90;;;6.24;61.28;94581.19;4929624;28;20594;-82
2021/11/21 02:58:01;;;;;;;17.88;11.32;;;7.00;76.00;;;6.22;61.53;94577.13;4939471;28;20207;-82
2021/11/21 03:00:29;;;;;;;19.75;12.23;;;7.10;75.90;;;6.18;61.18;94570.66;4951427;28;20725;-82
2021/11/21 03:02:57;;;;;;;18.67;11.50;;;7.00;75.70;;;6.11;60.90;94565.31;4962408;28;20209;-81
2021/11/21 03:05:26;;;;;;;18.10;11.38;;;7.00;75.60;;;6.07;61.01;94569.25;4930267;28;20238;-82
2021/11/21 03:07:53;;;;;;;17.05;10.82;;;6.90;75.60;;;5.99;61.47;94561.50;4928207;28;20423;-82
2021/11/21 03:10:21;;;;;;;17.55;11.55;;;6.90;75.70;;;5.96;61.47;94554.81;4931060;28;20303;-82
2021/11/21 03:12:56;;;;;;;18.23;11.43;;;6.80;75.60;;;5.93;61.27;94553.38;4931702;28;20227;-82
2021/11/21 03:15:25;;;;;;;18.95;11.32;;;6.80;75.90;;;5.90;61.37;94547.69;4936786;28;20224;-82
2021/11/21 03:17:53;;;;;;;19.55;12.43;;;6.80;75.70;;;5.83;61.52;94542.34;4927513;28;20195;-82
2021/11/21 03:20:26;;;;;;;21.55;12.65;;;6.80;75.70;;;5.82;61.58;94551.13;4932633;28;20478;-83
2021/11/21 03:22:54;;;;;;;19.25;12.05;;;6.70;75.70;;;5.81;61.30;94546.94;4930151;29;20199;-82
2021/11/21 03:25:21;;;;;;;22.45;13.20;;;6.70;75.70;;;5.77;61.27;94540.44;4938519;28;20229;-82
2021/11/21 03:27:49;;;;;;;19.50;12.60;;;6.70;75.80;;;5.76;61.56;94528.41;4944561;28;20276;-82
2021/11/21 03:30:20;;;;;;;19.85;12.45;;;6.60;75.70;;;5.73;61.57;94531.34;4952622;28;20801;-83
2021/11/21 03:32:49;;;;;;;20.17;12.32;;;6.60;75.80;;;5.75;61.77;94526.78;4936229;28;20723;-84
2021/11/21 03:35:17;;;;;;;21.60;11.98;;;6.60;75.80;;;5.72;61.36;94524.53;4927574;28;20678;-82
2021/11/21 03:37:45;;;;;;;19.67;11.95;;;6.60;75.90;;;5.72;61.25;94530.53;4940331;28;20568;-82
2021/11/21 03:40:16;;;;;;;20.33;12.65;;;6.60;75.90;;;5.69;61.08;94511.84;4938845;28;20255;-83
2021/11/21 03:42:45;;;;;;;21.80;12.73;;;6.50;75.90;;;5.67;61.38;94514.63;4938424;29;20243;-82
2021/11/21 03:45:14;;;;;;;17.60;11.32;;;6.50;75.80;;;5.59;61.58;94510.28;4940836;28;20207;-83
2021/11/21 03:47:41;;;;;;;19.90;12.20;;;6.50;75.80;;;5.55;61.60;94514.19;4938651;29;20199;-83
2021/11/21 03:50:12;;;;;;;18.27;11.50;;;6.50;75.70;;;5.56;61.52;94518.41;4939368;28;20241;-83
2021/11/21 03:52:44;;;;;;;21.88;12.60;;;6.40;75.70;;;5.48;61.52;94508.06;4942798;28;20238;-82
2021/11/21 03:55:16;;;;;;;19.52;11.98;;;6.40;75.70;;;5.43;61.29;94513.78;4926403;28;20226;-84
2021/11/21 03:57:44;;;;;;;16.40;10.10;;;6.40;75.60;;;5.36;61.32;94512.84;4941853;28;20233;-82
2021/11/21 04:00:17;;;;;;;18.60;10.70;;;6.30;75.40;;;5.27;61.43;94503.44;4934762;28;20257;-82
2021/11/21 04:02:46;;;;;;;19.95;11.70;;;6.30;75.30;;;5.17;61.07;94497.63;4941064;28;20297;-82
2021/11/21 04:05:15;;;;;;;19.58;11.13;;;6.20;75.20;;;5.07;61.44;94500.44;4941400;28;20222;-82
2021/11/21 04:07:43;;;;;;;19.08;11.40;;;6.20;75.20;;;4.96;61.24;94499.00;4934995;28;20213;-83
2021/11/21 04:10:11;;;;;;;17.52;10.55;;;6.10;75.10;;;4.88;61.48;94496.41;4952352;28;20688;-83
2021/11/21 04:12:38;;;;;;;17.33;10.80;;;6.10;75.10;;;4.77;61.37;94488.03;4927757;29;20724;-82
2021/11/21 04:15:08;;;;;;;19.83;11.68;;;5.90;75.00;;;4.63;61.16;94483.50;4932765;28;20214;-82
2021/11/21 04:17:36;;;;;;;18.80;11.23;;;5.90;75.10;;;4.53;61.43;94477.66;4954441;28;20195;-83
2021/11/21 04:20:06;;;;;;;21.38;11.50;;;5.80;75.00;;;4.49;61.73;94485.78;4939876;28;20458;-83
2021/11/21 04:22:33;;;;;;;19.73;11.45;;;5.70;75.10;;;4.44;61.69;94482.06;4939472;28;20214;-83
2021/11/21 04:25:02;;;;;;;17.77;11.10;;;5.60;75.10;;;4.38;61.90;94473.16;4923730;28;20242;-82
2021/11/21 04:27:29;;;;;;;19.13;11.20;;;5.50;75.20;;;4.37;61.91;94481.91;4939487;28;20282;-83
2021/11/21 04:29:57;;;;;;;19.42;11.98;;;5.50;75.40;;;4.36;61.91;94469.91;4939639;28;20222;-83
2021/11/21 04:32:26;;;;;;;20.13;12.20;;;5.40;75.60;;;4.36;61.77;94467.31;4941003;28;20546;-82
2021/11/21 04:34:53;;;;;;;21.98;11.60;;;5.40;75.70;;;4.41;61.95;94469.41;4937913;28;20306;-82
2021/11/21 04:37:20;;;;;;;20.95;11.82;;;5.40;75.90;;;4.45;62.03;94463.72;4939847;28;20199;-82
2021/11/21 04:39:48;;;;;;;23.50;12.48;;;5.40;76.10;;;4.51;62.19;94464.84;4940807;28;20722;-84
2021/11/21 04:42:16;;;;;;;33.08;12.20;;;5.40;76.30;;;4.57;62.38;94464.19;4939926;28;20245;-83
2021/11/21 04:44:44;;;;;;;46.55;13.00;;;5.40;76.40;;;4.63;62.23;94457.53;4940436;28;20223;-84
2021/11/21 04:47:12;;;;;;;40.67;13.75;;;5.40;76.40;;;4.69;62.01;94456.84;4940625;28;20210;-83
2021/11/21 04:49:39;;;;;;;46.20;12.73;;;5.50;76.50;;;4.72;62.19;94453.13;4941297;28;20260;-83
2021/11/21 04:52:08;;;;;;;46.53;13.20;;;5.50;76.40;;;4.72;62.11;94440.91;4940030;28;20268;-84
2021/11/21 04:54:35;;;;;;;40.85;12.80;;;5.50;76.50;;;4.79;62.33;94448.88;4924553;28;20760;-83
2021/11/21 04:57:04;;;;;;;59.95;12.45;;;5.60;76.60;;;4.77;62.00;94441.25;4940545;28;20262;-81
2021/11/21 04:59:32;;;;;;;52.75;11.65;;;5.60;76.60;;;4.82;62.27;94440.72;4940698;28;20687;-83
2021/11/21 05:02:00;;;;;;;37.50;11.68;;;5.60;76.60;;;4.80;61.94;94440.09;4956563;28;20294;-83
2021/11/21 05:04:28;;;;;;;31.83;10.82;;;5.60;76.40;;;4.74;61.97;94426.00;4940280;28;20438;-83
2021/11/21 05:06:56;;;;;;;36.33;9.95;;;5.60;76.40;;;4.75;61.81;94430.22;4941069;28;20202;-81
2021/11/21 05:09:23;;;;;;;45.10;11.52;;;5.60;76.40;;;4.71;62.01;94422.91;4939507;28;20273;-83
2021/11/21 05:11:50;;;;;;;49.50;10.55;;;5.60;76.30;;;4.69;62.09;94425.69;4940243;28;20228;-83
2021/11/21 05:14:19;;;;;;;26.75;9.45;;;5.60;76.30;;;4.67;62.00;94419.84;4926223;28;20219;-81
2021/11/21 05:16:48;;;;;;;34.13;9.73;;;5.60;76.30;;;4.64;62.14;94420.19;4957818;28;20207;-82
2021/11/21 05:19:16;;;;;;;23.95;9.43;;;5.50;76.30;;;4.57;62.06;94404.44;4941399;28;20258;-81
2021/11/21 05:21:44;;;;;;;21.13;9.30;;;5.60;76.40;;;4.60;62.01;94414.50;4936934;28;20199;-82
2021/11/21 05:24:11;;;;;;;46.05;9.02;;;5.50;76.30;;;4.56;62.06;94409.81;4942095;28;20210;-82
2021/11/21 05:26:39;;;;;;;58.88;9.23;;;5.50;76.30;;;4.53;62.10;94404.94;4942056;28;20589;-82
2021/11/21 05:29:06;;;;;;;45.15;9.55;;;5.50;76.30;;;4.47;62.18;94394.25;4937942;29;20716;-81
2021/11/21 05:31:33;;;;;;;82.13;10.70;;;5.40;77.10;;;4.44;62.02;94397.19;4938488;29;20230;-82
2021/11/21 05:34:01;;;;;;;40.47;9.82;;;5.40;76.30;;;4.40;62.17;94392.50;4954330;28;20256;-82
2021/11/21 05:36:29;;;;;;;36.20;9.95;;;5.40;76.20;;;4.32;62.43;94399.31;4954488;28;20195;-82
2021/11/21 05:38:56;;;;;;;40.15;10.05;;;5.30;76.10;;;4.29;61.90;94394.44;4956479;28;20254;-81
2021/11/21 05:41:24;;;;;;;56.53;10.35;;;5.30;76.10;;;4.23;62.02;94389.94;4942009;28;20197;-81
2021/11/21 05:43:51;;;;;;;38.00;9.07;;;5.30;76.10;;;4.18;62.10;94392.22;4941059;28;20227;-82
2021/11/21 05:46:18;;;;;;;55.50;9.27;;;5.30;76.20;;;4.16;62.34;94399.34;4941353;28;20203;-80
2021/11/21 05:48:45;;;;;;;53.55;9.75;;;5.20;76.20;;;4.10;62.10;94393.03;4941821;28;20265;-81
2021/11/21 05:51:13;;;;;;;51.10;9.07;;;5.10;76.30;;;4.10;62.31;94390.44;4940395;28;20335;-81
2021/11/21 05:53:40;;;;;;;57.05;9.63;;;5.10;76.20;;;4.07;62.53;94389.97;4939650;28;20309;-81
2021/11/21 05:56:07;;;;;;;57.80;8.65;;;5.10;76.40;;;4.04;62.52;94382.50;4925166;28;20230;-80
2021/11/21 05:58:34;;;;;;;47.67;8.27;;;5.00;76.40;;;4.04;62.63;94374.72;4941339;28;20242;-80
2021/11/21 06:01:01;;;;;;;38.10;8.13;;;5.00;76.50;;;4.02;62.50;94369.69;4956522;28;20548;-80
2021/11/21 06:03:29;;;;;;;45.25;9.02;;;5.00;76.60;;;4.03;62.41;94379.09;4941573;28;20214;-80
2021/11/21 06:05:56;;;;;;;39.75;8.45;;;5.00;76.70;;;4.02;62.44;94369.69;4925390;28;20293;-80
2021/11/21 06:08:23;;;;;;;35.22;7.82;;;4.90;76.50;;;3.98;62.67;94366.63;4940835;28;20226;-80
2021/11/21 06:10:50;;;;;;;30.05;8.27;;;4.90;76.50;;;3.95;62.42;94372.13;4940909;28;20259;-80
2021/11/21 06:13:18;;;;;;;27.10;8.43;;;4.90;76.40;;;3.90;62.40;94363.22;4940608;28;20582;-78
2021/11/21 06:15:45;;;;;;;40.92;14.27;;;4.90;76.40;;;3.91;62.35;94368.25;4955606;28;20198;-81
2021/11/21 06:18:13;;;;;;;32.67;9.95;;;4.90;76.40;;;3.84;62.81;94362.09;4938688;28;20679;-79
2021/11/21 06:20:40;;;;;;;46.35;9.70;;;4.80;76.30;;;3.77;62.50;94367.13;4935844;28;20230;-80
2021/11/21 06:23:07;;;;;;;27.08;8.77;;;4.80;76.20;;;3.73;62.34;94362.44;4937901;28;20207;-80
2021/11/21 06:25:34;;;;;;;20.33;7.90;;;4.80;76.20;;;3.68;62.73;94360.31;4954780;28;20199;-80
2021/11/21 06:28:01;;;;;;;21.05;8.90;;;4.70;76.10;;;3.63;62.35;94371.19;4935294;29;20278;-81
2021/11/21 06:30:28;;;;;;;28.48;9.38;;;4.70;76.20;;;3.59;62.31;94364.72;4935253;29;20270;-81
2021/11/21 06:32:55;;;;;;;36.00;9.25;;;4.60;76.20;;;3.55;62.83;94365.97;4952133;29;20274;-81
2021/11/21 06:35:23;;;;;;;23.77;8.50;;;4.60;76.20;;;3.52;62.85;94371.50;4937313;29;20223;-79
2021/11/21 06:37:50;;;;;;;22.30;8.32;;;4.50;76.20;;;3.48;62.70;94368.44;4938129;28;20195;-81
2021/11/21 06:40:18;;;;;;;33.60;8.77;;;4.50;76.30;;;3.50;62.73;94370.84;4937113;29;20219;-80
2021/11/21 06:42:45;;;;;;;18.98;8.60;;;4.50;76.50;;;3.49;62.88;94366.63;4953224;29;20298;-82
2021/11/21 06:45:14;;;;;;;20.35;9.10;;;4.40;76.50;;;3.51;62.80;94365.50;4941433;28;20242;-81
2021/11/21 06:47:42;;;;;;;24.35;8.98;;;4.40;76.60;;;3.49;63.05;94361.44;4956597;28;20253;-81
2021/11/21 06:50:13;;;;;;;17.30;8.68;;;4.50;76.80;;;3.55;62.90;94360.00;4954384;28;20222;-82
2021/11/21 06:52:42;;;;;;;23.90;9.27;;;4.40;76.90;;;3.62;62.80;94355.78;4931001;28;20215;-80
2021/11/21 06:55:12;;;;;;;25.17;11.15;;;4.40;76.90;;;3.67;62.92;94351.75;4940829;28;20246;-81
2021/11/21 06:57:39;;;;;;;43.38;13.80;;;4.60;77.20;;;3.73;62.86;94347.66;4942444;28;20632;-81
2021/11/21 07:00:12;;;;;;;51.15;19.80;;;4.50;77.20;;;3.77;62.89;94338.59;4960446;28;20763;-81
2021/11/21 07:02:39;;;;;;;52.13;23.23;;;4.50;77.30;;;3.84;63.07;94344.75;4974746;28;20230;-80
2021/11/21 07:05:07;;;;;;;41.80;17.80;;;4.60;77.30;;;3.91;63.15;94342.31;4957709;28;20230;-80
2021/11/21 07:07:36;;;;;;;35.50;14.35;;;4.60;77.40;;;3.98;63.17;94337.28;4973543;28;20253;-79
2021/11/21 07:10:05;;;;;;;27.95;12.15;;;4.60;77.50;;;4.06;62.93;94339.03;4959402;28;20219;-79
2021/11/21 07:12:34;;;;;;;26.70;12.38;;;4.70;77.60;;;4.15;63.06;94340.63;4944507;28;20233;-80
2021/11/21 07:15:17;;;;;;;35.55;12.13;;;4.80;77.80;;;4.25;63.19;94333.47;4945389;28;20218;-80
2021/11/21 07:17:51;;;;;;;46.10;11.88;;;4.80;78.00;;;4.34;63.11;94336.84;4944146;28;20179;-80
2021/11/21 07:20:19;;;;;;;53.60;11.98;;;4.90;78.00;;;4.41;63.33;94335.19;4943830;28;20605;-80
2021/11/21 07:22:51;;;;;;;64.13;11.43;;;5.00;77.90;;;4.47;63.20;94336.31;4943490;28;20573;-79
2021/11/21 07:25:22;;;;;;;44.40;12.38;;;5.10;78.00;;;4.53;63.15;94321.84;4958477;28;20321;-80
2021/11/21 07:27:51;;;;;;;48.35;11.75;;;5.10;78.00;;;4.63;63.12;94335.44;4960012;28;20203;-79
2021/11/21 07:30:21;;;;;;;39.40;11.20;;;5.20;77.90;;;4.69;63.20;94332.16;4943347;28;20218;-80
2021/11/21 07:32:51;;;;;;;55.17;10.68;;;5.30;78.00;;;4.75;63.09;94323.69;4959383;28;20215;-80
2021/11/21 07:35:21;;;;;;;36.55;10.98;;;5.30;77.90;;;4.79;63.27;94317.16;4943263;28;20211;-81
2021/11/21 07:37:49;;;;;;;50.72;12.05;;;5.40;77.90;;;4.82;63.02;94310.81;4943540;28;20207;-81
2021/11/21 07:40:18;;;;;;;38.90;10.93;;;5.40;77.90;;;4.93;63.11;94322.63;4943625;28;20250;-80
2021/11/21 07:42:45;;;;;;;33.50;10.57;;;5.50;78.00;;;4.97;63.27;94327.31;4942911;28;20195;-80
2021/11/21 07:45:14;;;;;;;36.70;10.65;;;5.50;77.90;;;5.05;63.38;94320.44;4941440;28;20786;-80
2021/11/21 07:47:42;;;;;;;42.72;10.75;;;5.60;78.10;;;5.07;63.30;94315.88;4942897;28;20203;-81
2021/11/21 07:50:10;;;;;;;34.50;12.43;;;5.70;78.10;;;5.17;63.17;94316.44;4943296;28;20313;-80
2021/11/21 07:52:37;;;;;;;38.83;12.57;;;5.70;78.10;;;5.23;63.16;94307.16;4946471;28;20313;-81
2021/11/21 07:55:06;;;;;;;51.05;12.80;;;5.80;78.20;;;5.33;63.17;94312.94;4975445;28;20257;-80
2021/11/21 07:57:33;;;;;;;38.88;13.95;;;5.80;78.20;;;5.39;63.53;94308.84;4943390;28;20254;-81
2021/11/21 08:00:05;;;;;;;42.03;13.68;;;5.90;78.30;;;5.44;63.18;94307.34;4942738;28;20222;-81
2021/11/21 08:02:33;;;;;;;41.13;12.15;;;6.00;78.30;;;5.53;63.37;94312.44;4943324;28;20199;-80
2021/11/21 08:05:00;;;;;;;46.55;12.30;;;6.00;78.20;;;5.56;63.19;94314.72;4950312;28;20223;-80
2021/11/21 08:07:31;;;;;;;31.30;13.25;;;6.20;78.20;;;5.58;63.22;94310.16;4943478;28;20211;-80
2021/11/21 08:09:59;;;;;;;100.38;37.58;;;6.10;78.30;;;5.69;63.25;94314.09;4943032;28;20219;-80
2021/11/21 08:12:26;;;;;;;91.82;51.78;;;6.20;79.10;;;5.74;63.34;94311.81;4978346;28;20779;-80
2021/11/21 08:14:54;;;;;;;70.22;32.22;;;6.30;78.30;;;5.79;63.28;94309.47;4959289;28;20227;-80
2021/11/21 08:17:22;;;;;;;41.53;21.73;;;6.30;78.20;;;5.84;63.21;94314.16;4943311;28;20240;-80
2021/11/21 08:19:49;;;;;;;38.97;17.30;;;6.40;78.30;;;5.86;63.09;94304.34;4958585;28;20207;-81
2021/11/21 08:22:16;;;;;;;38.20;15.60;;;6.40;78.30;;;5.95;63.15;94308.50;4952456;28;20211;-80
2021/11/21 08:24:45;;;;;;;31.67;12.60;;;6.40;78.20;;;6.01;63.36;94314.81;4939465;29;20222;-79
2021/11/21 08:27:14;;;;;;;41.90;12.60;;;6.50;78.30;;;6.06;63.20;94313.28;4955461;29;20198;-81
2021/11/21 08:29:41;;;;;;;35.78;11.63;;;6.50;78.40;;;6.13;63.21;94316.00;4955234;28;20222;-81
2021/11/21 08:32:09;;;;;;;37.05;12.35;;;6.60;78.70;;;6.20;63.22;94305.66;4943105;28;20255;-80
2021/11/21 08:34:38;;;;;;;37.65;14.48;;;6.60;78.60;;;6.24;63.28;94296.53;4955208;28;20223;-80
2021/11/21 08:37:05;;;;;;;36.40;16.70;;;6.80;78.70;;;6.35;63.48;94298.66;4939565;29;20251;-80
2021/11/21 08:39:33;;;;;;;31.33;16.63;;;6.90;78.70;;;6.44;63.02;94299.38;4939455;29;20305;-80
2021/11/21 08:42:00;;;;;;;45.47;16.20;;;6.80;78.50;;;6.54;63.09;94302.53;4971492;28;20732;-80
2021/11/21 08:44:28;;;;;;;33.85;14.85;;;7.00;78.50;;;6.57;63.20;94303.94;4941283;28;20628;-82
2021/11/21 08:46:55;;;;;;;26.40;13.38;;;7.00;78.40;;;6.64;63.18;94315.25;4941394;28;20246;-82
2021/11/21 08:49:22;;;;;;;33.40;14.52;;;7.10;78.50;;;6.70;63.37;94314.53;4941924;28;20226;-81
2021/11/21 08:51:49;;;;;;;24.02;15.10;;;7.10;78.50;;;6.79;63.26;94311.81;4942466;28;20202;-82
2021/11/21 08:54:17;;;;;;;28.10;14.40;;;7.20;78.50;;;6.84;63.09;94309.47;4937638;29;20227;-80
2021/11/21 08:56:47;;;;;;;23.13;13.35;;;7.20;78.40;;;6.89;63.21;94309.72;4955309;28;20221;-80
2021/11/21 08:59:16;;;;;;;32.47;13.18;;;7.30;78.30;;;6.94;63.05;94307.38;4941804;28;20717;-80
2021/11/21 09:01:43;;;;;;;26.52;12.68;;;7.40;78.40;;;7.04;63.46;94307.06;4942120;28;20262;-82
2021/11/21 09:04:12;;;;;;;21.35;13.93;;;7.40;78.50;;;7.16;63.52;94310.81;4941400;28;20222;-81
2021/11/21 09:06:43;;;;;;;36.85;14.38;;;7.60;78.80;;;7.29;63.19;94311.94;4941769;28;20226;-81
2021/11/21 09:09:10;;;;;;;37.13;13.05;;;7.60;78.70;;;7.36;63.22;94307.56;4939723;28;20222;-81
2021/11/21 09:11:38;;;;;;;28.42;13.00;;;7.70;78.60;;;7.37;63.02;94320.44;4942209;28;20203;-81
2021/11/21 09:14:07;;;;;;;21.15;13.13;;;7.80;78.40;;;7.40;63.04;94313.22;4941014;28;20262;-82
2021/11/21 09:16:34;;;;;;;21.27;12.13;;;7.80;78.20;;;7.42;62.56;94314.69;4951356;28;20230;-82
2021/11/21 09:19:02;;;;;;;21.88;12.32;;;7.90;78.10;;;7.43;62.82;94315.47;4944763;28;20685;-80
2021/11/21 09:21:30;;;;;;;18.60;12.60;;;7.90;77.90;;;7.42;62.64;94309.47;4957734;28;20206;-80
2021/11/21 09:23:57;;;;;;;21.52;12.95;;;7.90;77.80;;;7.44;62.83;94309.28;4957647;28;20223;-80
2021/11/21 09:26:29;;;;;;;28.25;12.63;;;7.90;77.70;;;7.50;62.98;94311.13;4975288;28;20250;-80
2021/11/21 09:28:58;;;;;;;20.73;13.30;;;8.00;77.70;;;7.58;63.00;94304.97;4957685;28;20226;-80
2021/11/21 09:31:26;;;;;;;23.52;13.75;;;8.00;77.90;;;7.65;62.86;94291.00;4952073;28;20216;-80
2021/11/21 09:33:54;;;;;;;20.65;13.40;;;8.10;78.00;;;7.66;62.55;94283.94;4937794;29;20259;-81
2021/11/21 09:36:21;;;;;;;22.38;13.98;;;8.10;78.00;;;7.81;62.83;94296.91;4954284;29;20202;-81
2021/11/21 09:38:49;;;;;;;23.50;14.30;;;8.20;78.00;;;7.83;62.62;94287.09;4954213;28;20233;-82
2021/11/21 09:41:17;;;;;;;25.58;13.90;;;8.20;77.90;;;7.89;62.40;94286.31;4956876;28;20194;-82
2021/11/21 09:43:44;;;;;;;23.75;14.23;;;8.30;77.80;;;7.91;62.35;94279.13;4951344;28;20228;-82
2021/11/21 09:46:14;;;;;;;20.33;12.90;;;8.40;77.70;;;7.94;62.30;94288.38;4937736;29;20329;-82
2021/11/21 09:48:41;;;;;;;20.25;12.85;;;8.40;77.60;;;7.98;62.12;94285.19;4976127;28;20221;-82
2021/11/21 09:51:09;;;;;;;18.75;11.55;;;8.40;77.60;;;8.01;61.94;94290.03;4954537;28;20215;-82
2021/11/21 09:53:37;;;;;;;19.35;12.32;;;8.50;77.50;;;8.08;62.42;94286.66;4951014;28;20240;-82
2021/11/21 09:56:04;;;;;;;22.50;13.05;;;8.50;77.60;;;8.15;62.19;94288.31;4941492;28;20209;-83
2021/11/21 09:58:32;;;;;;;23.35;12.70;;;8.50;77.60;;;8.25;62.20;94281.91;4941272;28;20223;-82
2021/11/21 10:00:59;;;;;;;23.63;14.20;;;8.60;77.70;;;8.31;62.03;94276.75;4939939;28;20222;-82
2021/11/21 10:03:27;;;;;;;24.85;14.82;;;8.60;77.60;;;8.36;62.06;94275.34;4940960;28;20209;-83
2021/11/21 10:05:55;;;;;;;106.65;24.02;;;8.70;77.50;;;8.35;61.73;94269.31;4941197;28;20238;-82
2021/11/21 10:08:26;;;;;;;29.73;16.23;;;8.80;77.40;;;8.35;61.37;94258.88;4922625;28;20222;-82
2021/11/21 10:11:02;;;;;;;39.80;15.70;;;8.80;77.20;;;8.30;61.43;94259.44;4957133;28;20712;-80
2021/11/21 10:13:42;;;;;;;33.65;22.98;;;8.80;77.80;;;8.26;61.47;94249.56;4946256;28;20603;-81
2021/11/21 10:16:31;;;;;;;45.88;27.48;;;8.80;77.70;;;8.23;61.42;94240.31;4953909;28;20287;-83
2021/11/21 10:19:07;;;;;;;30.10;20.08;;;8.90;77.00;;;8.22;61.49;94236.09;4940417;28;20268;-81
2021/11/21 10:21:54;;;;;;;54.33;32.40;;;8.80;76.90;;;8.21;61.52;94234.47;4952151;28;20206;-82
2021/11/21 10:24:28;;;;;;;33.45;20.92;;;8.80;77.10;;;8.21;61.53;94228.47;4953821;28;20245;-81
2021/11/21 10:27:19;;;;;;;27.40;17.00;;;8.70;77.00;;;8.16;61.60;94226.41;4922961;28;20190;-81